createdAt,value
2022-07-27T00:01:59.744Z,84.20
2022-07-27T00:04:26.508Z,83.80
2022-07-27T00:06:53.737Z,83.80
2022-07-27T00:09:20.556Z,83.80
2022-07-27T00:11:49.890Z,84.10
2022-07-27T00:14:16.771Z,84.90
2022-07-27T00:16:45.765Z,84.80
2022-07-27T00:19:12.824Z,86.20
2022-07-27T00:21:44.639Z,85.80
2022-07-27T00:24:12.999Z,86.20
2022-07-27T00:26:41.859Z,86.10
2022-07-27T00:29:09.270Z,85.70
2022-07-27T00:31:38.441Z,86.60
2022-07-27T00:34:08.074Z,86.70
2022-07-27T00:36:37.329Z,86.70
2022-07-27T00:39:04.244Z,86.60
2022-07-27T00:41:30.902Z,86.70
2022-07-27T00:43:59.961Z,86.90
2022-07-27T00:46:30.219Z,86.60
2022-07-27T00:48:59.653Z,87.00
2022-07-27T00:51:26.396Z,87.10
2022-07-27T00:53:54.187Z,86.80
2022-07-27T00:56:22.003Z,87.30
2022-07-27T00:58:51.426Z,87.10
2022-07-27T01:01:21.411Z,86.80
2022-07-27T01:03:48.492Z,86.20
2022-07-27T01:06:16.342Z,86.60
2022-07-27T01:08:52.564Z,86.30
2022-07-27T01:11:22.002Z,86.30
2022-07-27T01:13:48.798Z,85.80
2022-07-27T01:16:15.653Z,85.80
2022-07-27T01:18:43.287Z,85.50
2022-07-27T01:21:12.444Z,85.50
2022-07-27T01:23:39.199Z,85.50
2022-07-27T01:26:08.137Z,85.20
2022-07-27T01:28:34.913Z,85.30
2022-07-27T01:31:01.858Z,85.30
2022-07-27T01:33:28.697Z,85.60
2022-07-27T01:35:57.273Z,85.30
2022-07-27T01:38:24.105Z,85.20
2022-07-27T01:40:51.698Z,85.00
2022-07-27T01:43:18.946Z,85.30
2022-07-27T01:45:45.896Z,84.90
2022-07-27T01:48:12.667Z,85.00
2022-07-27T01:50:47.566Z,85.20
2022-07-27T01:53:14.743Z,85.10
2022-07-27T01:55:41.536Z,84.90
2022-07-27T01:58:09.129Z,84.80
2022-07-27T02:00:38.269Z,84.90
2022-07-27T02:03:06.737Z,84.50
2022-07-27T02:05:33.716Z,84.50
2022-07-27T02:08:00.523Z,84.40
2022-07-27T02:10:27.930Z,84.40
2022-07-27T02:12:57.212Z,84.30
2022-07-27T02:15:28.089Z,84.30
2022-07-27T02:18:28.923Z,84.30
2022-07-27T02:20:56.584Z,84.00
2022-07-27T02:23:23.259Z,83.70
2022-07-27T02:25:49.994Z,83.70
2022-07-27T02:28:16.716Z,83.80
2022-07-27T02:30:48.189Z,84.00
2022-07-27T02:33:15.082Z,83.60
2022-07-27T02:35:43.206Z,83.80
2022-07-27T02:38:10.080Z,83.90
2022-07-27T02:40:36.872Z,84.00
2022-07-27T02:43:03.610Z,84.00
2022-07-27T02:45:30.352Z,84.60
2022-07-27T02:47:57.095Z,84.60
2022-07-27T02:50:26.162Z,84.50
2022-07-27T02:52:55.592Z,84.70
2022-07-27T02:55:22.296Z,85.20
2022-07-27T02:57:48.975Z,85.50
2022-07-27T03:00:16.523Z,85.80
2022-07-27T03:02:49.130Z,85.90
2022-07-27T03:05:16.087Z,85.80
2022-07-27T03:07:42.756Z,85.90
2022-07-27T03:10:09.499Z,86.00
2022-07-27T03:12:41.194Z,86.20
2022-07-27T03:15:10.757Z,85.90
2022-07-27T03:17:37.479Z,86.50
2022-07-27T03:20:04.535Z,86.20
2022-07-27T03:22:34.402Z,86.70
2022-07-27T03:25:01.350Z,86.60
2022-07-27T03:27:29.214Z,86.70
2022-07-27T03:29:56.489Z,86.60
2022-07-27T03:32:23.463Z,86.60
2022-07-27T03:34:50.430Z,86.90
2022-07-27T03:37:18.962Z,87.00
2022-07-27T03:39:48.346Z,86.90
2022-07-27T03:42:15.174Z,86.90
2022-07-27T03:44:41.934Z,87.20
2022-07-27T03:47:08.670Z,86.80
2022-07-27T03:49:37.776Z,86.90
2022-07-27T03:52:04.752Z,87.00
2022-07-27T03:54:31.504Z,86.80
2022-07-27T03:56:58.263Z,87.10
2022-07-27T03:59:26.432Z,86.90
2022-07-27T04:01:54.397Z,87.20
2022-07-27T04:04:21.294Z,87.40
2022-07-27T04:06:48.108Z,87.50
2022-07-27T04:09:17.179Z,87.50
2022-07-27T04:11:50.725Z,87.40
2022-07-27T04:14:18.613Z,87.50
2022-07-27T04:16:45.528Z,87.50
2022-07-27T04:19:14.841Z,88.10
2022-07-27T04:21:44.327Z,88.30
2022-07-27T04:24:13.723Z,88.30
2022-07-27T04:26:40.520Z,88.30
2022-07-27T04:29:07.350Z,88.40
2022-07-27T04:31:34.084Z,88.40
2022-07-27T04:34:00.821Z,88.40
2022-07-27T04:36:27.613Z,89.20
2022-07-27T04:38:54.306Z,89.70
2022-07-27T04:41:23.959Z,90.00
2022-07-27T04:43:58.706Z,90.00
2022-07-27T04:46:26.197Z,90.10
2022-07-27T04:48:55.469Z,90.00
2022-07-27T04:51:27.376Z,90.10
2022-07-27T04:53:58.378Z,90.00
2022-07-27T04:56:27.082Z,90.10
2022-07-27T04:58:54.924Z,90.10
2022-07-27T05:01:23.156Z,90.10
2022-07-27T05:03:50.107Z,90.20
2022-07-27T05:06:17.358Z,90.10
2022-07-27T05:08:44.146Z,90.00
2022-07-27T05:11:15.564Z,90.20
2022-07-27T05:13:44.869Z,90.10
2022-07-27T05:16:14.060Z,90.10
2022-07-27T05:18:40.885Z,90.10
2022-07-27T05:21:09.626Z,90.00
2022-07-27T05:23:36.333Z,90.20
2022-07-27T05:26:03.040Z,90.20
2022-07-27T05:28:30.065Z,90.30
2022-07-27T05:30:57.057Z,90.30
2022-07-27T05:33:23.835Z,90.40
2022-07-27T05:35:50.835Z,90.30
2022-07-27T05:38:17.536Z,90.50
2022-07-27T05:40:45.643Z,90.50
2022-07-27T05:43:14.544Z,90.60
2022-07-27T05:45:43.857Z,90.80
2022-07-27T05:48:12.750Z,90.80
2022-07-27T05:50:39.508Z,90.70
2022-07-27T05:53:08.869Z,90.70
2022-07-27T05:55:35.679Z,90.60
2022-07-27T05:58:02.489Z,90.80
2022-07-27T06:00:29.310Z,90.70
2022-07-27T06:02:56.088Z,90.50
2022-07-27T06:05:25.411Z,90.40
2022-07-27T06:08:08.773Z,90.40
2022-07-27T06:10:38.124Z,90.30
2022-07-27T06:13:09.236Z,90.20
2022-07-27T06:15:36.901Z,90.30
2022-07-27T06:18:04.187Z,90.30
2022-07-27T06:20:31.738Z,90.20
2022-07-27T06:23:07.755Z,90.20
2022-07-27T06:25:35.989Z,90.20
2022-07-27T06:28:04.595Z,90.20
2022-07-27T06:30:36.275Z,90.30
2022-07-27T06:33:06.605Z,90.40
2022-07-27T06:35:33.984Z,90.40
2022-07-27T06:38:05.576Z,90.60
2022-07-27T06:40:32.655Z,90.30
2022-07-27T06:43:00.066Z,90.20
2022-07-27T06:45:27.369Z,90.10
2022-07-27T06:47:54.209Z,90.20
2022-07-27T06:50:23.959Z,90.20
2022-07-27T06:52:52.934Z,90.10
2022-07-27T06:55:19.739Z,90.20
2022-07-27T06:57:48.934Z,90.00
2022-07-27T07:00:16.188Z,90.00
2022-07-27T07:02:57.205Z,90.10
2022-07-27T07:05:26.639Z,89.90
2022-07-27T07:07:55.970Z,90.00
2022-07-27T07:10:25.250Z,89.80
2022-07-27T07:12:56.179Z,90.10
2022-07-27T07:15:27.090Z,89.40
2022-07-27T07:17:56.476Z,89.30
2022-07-27T07:20:25.406Z,88.90
2022-07-27T07:22:54.257Z,88.60
2022-07-27T07:25:24.071Z,88.20
2022-07-27T07:27:51.157Z,88.30
2022-07-27T07:30:18.056Z,88.90
2022-07-27T07:32:49.901Z,88.40
2022-07-27T07:35:16.816Z,88.10
2022-07-27T07:37:43.598Z,88.30
2022-07-27T07:40:39.951Z,88.10
2022-07-27T07:43:04.004Z,88.30
2022-07-27T07:45:33.750Z,88.60
2022-07-27T07:48:00.736Z,88.80
2022-07-27T07:50:28.145Z,88.60
2022-07-27T07:52:57.216Z,88.60
2022-07-27T07:55:26.423Z,87.90
2022-07-27T07:57:56.288Z,87.00
2022-07-27T08:00:23.985Z,86.60
2022-07-27T08:02:56.060Z,85.80
2022-07-27T08:05:26.498Z,85.40
2022-07-27T08:07:56.218Z,85.40
2022-07-27T08:10:23.489Z,85.10
2022-07-27T08:12:53.591Z,84.90
2022-07-27T08:15:20.873Z,84.50
2022-07-27T08:17:56.755Z,84.20
2022-07-27T08:20:25.514Z,84.10
2022-07-27T08:22:52.232Z,84.30
2022-07-27T08:25:21.310Z,84.50
2022-07-27T08:27:48.018Z,84.60
2022-07-27T08:30:14.899Z,84.70
2022-07-27T08:33:01.036Z,84.10
2022-07-27T08:35:29.360Z,83.20
2022-07-27T08:37:56.233Z,82.60
2022-07-27T08:43:12.955Z,81.60
2022-07-27T08:45:41.507Z,80.70
2022-07-27T08:48:13.489Z,80.60
2022-07-27T08:50:42.576Z,80.10
2022-07-27T08:53:14.488Z,80.10
2022-07-27T08:55:43.563Z,79.40
2022-07-27T08:58:11.605Z,79.50
2022-07-27T09:00:51.709Z,80.00
2022-07-27T09:03:21.513Z,80.00
2022-07-27T09:05:59.640Z,80.30
2022-07-27T09:08:30.374Z,79.70
2022-07-27T09:10:59.593Z,79.40
2022-07-27T09:13:31.969Z,78.90
2022-07-27T09:16:20.889Z,77.70
2022-07-27T09:18:51.276Z,77.00
2022-07-27T09:21:18.067Z,76.20
2022-07-27T09:23:51.288Z,75.90
2022-07-27T09:26:34.680Z,75.40
2022-07-27T09:29:12.137Z,75.50
2022-07-27T09:31:49.341Z,73.50
2022-07-27T09:34:31.836Z,72.90
2022-07-27T09:37:05.710Z,73.00
2022-07-27T09:39:32.656Z,74.00
2022-07-27T09:42:04.154Z,74.10
2022-07-27T09:44:45.090Z,73.20
2022-07-27T09:47:29.721Z,73.70
2022-07-27T09:50:15.488Z,72.90
2022-07-27T09:52:42.304Z,72.70
2022-07-27T09:55:09.357Z,71.90
2022-07-27T09:57:59.342Z,72.40
2022-07-27T10:00:27.195Z,72.60
2022-07-27T10:02:55.061Z,72.50
2022-07-27T10:05:22.803Z,71.80
2022-07-27T10:07:52.584Z,71.50
2022-07-27T10:10:20.454Z,71.90
2022-07-27T10:12:54.091Z,71.80
2022-07-27T10:15:23.307Z,71.60
2022-07-27T10:18:15.395Z,71.80
2022-07-27T10:20:47.543Z,71.00
2022-07-27T10:23:32.511Z,70.30
2022-07-27T10:26:29.765Z,70.90
2022-07-27T10:29:05.876Z,71.70
2022-07-27T10:31:39.545Z,71.00
2022-07-27T10:34:14.283Z,70.10
2022-07-27T10:36:53.068Z,70.40
2022-07-27T10:39:34.389Z,69.90
2022-07-27T10:42:30.653Z,70.20
2022-07-27T10:45:07.872Z,70.00
2022-07-27T10:47:42.325Z,69.70
2022-07-27T10:50:22.078Z,70.10
2022-07-27T10:52:50.480Z,70.80
2022-07-27T10:55:32.258Z,72.00
2022-07-27T10:58:25.219Z,72.40
2022-07-27T11:00:55.050Z,71.60
2022-07-27T11:03:43.557Z,71.80
2022-07-27T11:06:32.657Z,71.40
2022-07-27T11:09:53.308Z,69.70
2022-07-27T11:11:53.566Z,69.90
2022-07-27T11:14:31.273Z,69.60
2022-07-27T11:19:59.183Z,67.80
2022-07-27T11:23:14.049Z,67.80
2022-07-27T11:25:24.512Z,67.20
2022-07-27T11:27:52.317Z,66.70
2022-07-27T11:30:27.271Z,65.60
2022-07-27T11:32:55.009Z,65.70
2022-07-27T11:35:21.898Z,64.20
2022-07-27T11:38:05.487Z,63.50
2022-07-27T11:40:59.407Z,65.30
2022-07-27T11:43:39.677Z,63.30
2022-07-27T11:46:28.502Z,64.20
2022-07-27T11:49:07.477Z,65.20
2022-07-27T11:51:49.923Z,64.50
2022-07-27T11:54:23.511Z,63.80
2022-07-27T11:57:12.399Z,63.40
2022-07-27T11:59:43.671Z,63.10
2022-07-27T12:02:16.174Z,63.80
2022-07-27T12:04:46.713Z,64.80
2022-07-27T12:07:16.703Z,63.00
2022-07-27T12:09:59.042Z,63.00
2022-07-27T12:12:27.647Z,62.30
2022-07-27T12:14:59.044Z,63.10
2022-07-27T12:17:39.040Z,61.30
2022-07-27T12:20:21.032Z,61.90
2022-07-27T12:22:53.074Z,60.20
2022-07-27T12:25:22.063Z,60.90
2022-07-27T12:28:07.851Z,61.90
2022-07-27T12:30:44.804Z,61.30
2022-07-27T12:33:37.874Z,60.60
2022-07-27T12:36:09.354Z,60.90
2022-07-27T12:38:43.591Z,60.40
2022-07-27T12:41:22.636Z,59.10
2022-07-27T12:44:20.404Z,59.50
2022-07-27T12:46:53.237Z,60.00
2022-07-27T12:49:24.669Z,60.00
2022-07-27T12:51:52.014Z,59.40
2022-07-27T12:54:18.902Z,59.60
2022-07-27T12:56:47.143Z,60.10
2022-07-27T12:59:19.933Z,59.50
2022-07-27T13:01:46.701Z,59.00
2022-07-27T13:04:18.143Z,58.50
2022-07-27T13:06:47.372Z,58.00
2022-07-27T13:09:16.830Z,59.40
2022-07-27T13:11:48.156Z,58.80
2022-07-27T13:14:17.504Z,58.40
2022-07-27T13:16:44.351Z,57.60
2022-07-27T13:19:14.200Z,57.30
2022-07-27T13:21:41.537Z,57.20
2022-07-27T13:24:10.076Z,57.00
2022-07-27T13:26:37.785Z,56.50
2022-07-27T13:29:05.018Z,55.30
2022-07-27T13:31:31.927Z,55.60
2022-07-27T13:34:00.117Z,56.40
2022-07-27T13:36:30.261Z,56.30
2022-07-27T13:38:59.343Z,56.00
2022-07-27T13:41:26.032Z,55.50
2022-07-27T13:43:52.953Z,55.90
2022-07-27T13:46:21.892Z,55.60
2022-07-27T13:48:48.828Z,54.10
2022-07-27T13:51:15.722Z,55.20
2022-07-27T13:53:42.445Z,54.80
2022-07-27T13:56:09.206Z,55.30
2022-07-27T13:58:37.554Z,54.90
2022-07-27T14:01:07.690Z,55.10
2022-07-27T14:03:34.647Z,55.30
2022-07-27T14:06:01.445Z,56.00
2022-07-27T14:08:28.199Z,55.20
2022-07-27T14:10:55.028Z,55.90
2022-07-27T14:13:22.223Z,55.30
2022-07-27T14:15:52.967Z,54.50
2022-07-27T14:18:23.674Z,53.90
2022-07-27T14:20:50.615Z,54.40
2022-07-27T14:23:17.341Z,54.30
2022-07-27T14:25:44.188Z,54.40
2022-07-27T14:28:10.873Z,54.10
2022-07-27T14:30:42.166Z,53.50
2022-07-27T14:33:08.870Z,53.30
2022-07-27T14:35:40.343Z,53.70
2022-07-27T14:38:11.291Z,54.50
2022-07-27T14:40:39.321Z,53.60
2022-07-27T14:43:11.524Z,53.40
2022-07-27T14:45:45.272Z,54.30
2022-07-27T14:48:23.120Z,53.50
2022-07-27T14:50:54.463Z,53.20
2022-07-27T14:53:21.475Z,52.70
2022-07-27T14:55:50.400Z,52.70
2022-07-27T14:58:17.207Z,52.60
2022-07-27T15:00:44.071Z,52.30
2022-07-27T15:03:14.622Z,52.40
2022-07-27T15:05:49.449Z,52.40
2022-07-27T15:08:21.081Z,52.40
2022-07-27T15:10:48.886Z,52.00
2022-07-27T15:13:17.112Z,52.50
2022-07-27T15:15:44.257Z,52.20
2022-07-27T15:18:11.025Z,52.20
2022-07-27T15:20:37.819Z,51.90
2022-07-27T15:23:09.342Z,51.70
2022-07-27T15:25:36.085Z,51.40
2022-07-27T15:28:02.812Z,51.90
2022-07-27T15:30:31.114Z,52.70
2022-07-27T15:33:00.504Z,52.80
2022-07-27T15:35:29.711Z,52.70
2022-07-27T15:37:56.586Z,54.00
2022-07-27T15:40:38.954Z,54.20
2022-07-27T15:43:13.144Z,53.30
2022-07-27T15:45:41.395Z,53.60
2022-07-27T15:48:09.679Z,53.20
2022-07-27T15:50:41.453Z,52.80
2022-07-27T15:53:08.729Z,52.20
2022-07-27T15:55:37.394Z,51.30
2022-07-27T15:58:05.941Z,50.90
2022-07-27T16:00:38.633Z,49.90
2022-07-27T16:03:06.614Z,49.20
2022-07-27T16:05:33.513Z,48.60
2022-07-27T16:08:02.459Z,49.50
2022-07-27T16:10:29.912Z,47.80
2022-07-27T16:13:00.526Z,49.60
2022-07-27T16:15:45.891Z,47.90
2022-07-27T16:18:18.870Z,50.20
2022-07-27T16:20:47.823Z,47.20
2022-07-27T16:23:18.743Z,50.20
2022-07-27T16:26:07.621Z,47.70
2022-07-27T16:28:39.525Z,47.00
2022-07-27T16:31:11.218Z,48.30
2022-07-27T16:33:38.605Z,48.00
2022-07-27T16:36:05.813Z,47.40
2022-07-27T16:38:35.197Z,50.10
2022-07-27T16:41:05.601Z,48.90
2022-07-27T16:43:38.338Z,51.50
2022-07-27T16:46:07.608Z,51.00
2022-07-27T16:48:42.287Z,50.70
2022-07-27T16:51:15.277Z,50.00
2022-07-27T16:53:44.305Z,50.80
2022-07-27T16:56:14.583Z,50.70
2022-07-27T16:58:46.746Z,50.40
2022-07-27T17:01:26.414Z,50.10
2022-07-27T17:03:54.532Z,50.10
2022-07-27T17:06:21.592Z,50.40
2022-07-27T17:08:48.570Z,51.40
2022-07-27T17:11:21.730Z,51.70
2022-07-27T17:13:51.230Z,51.70
2022-07-27T17:16:26.162Z,51.20
2022-07-27T17:18:53.051Z,52.30
2022-07-27T17:21:19.816Z,51.50
2022-07-27T17:23:46.529Z,51.60
2022-07-27T17:26:13.889Z,50.20
2022-07-27T17:28:40.960Z,52.20
2022-07-27T17:31:10.982Z,51.60
2022-07-27T17:33:39.087Z,50.70
2022-07-27T17:36:10.874Z,50.90
2022-07-27T17:38:42.193Z,51.00
2022-07-27T17:41:08.916Z,52.50
2022-07-27T17:43:38.632Z,51.40
2022-07-27T17:46:06.667Z,52.50
2022-07-27T17:48:35.284Z,51.20
2022-07-27T17:51:05.284Z,52.10
2022-07-27T17:53:32.136Z,52.00
2022-07-27T17:56:00.816Z,53.50
2022-07-27T17:58:30.148Z,53.00
2022-07-27T18:00:57.490Z,53.30
2022-07-27T18:03:24.214Z,52.50
2022-07-27T18:05:51.002Z,52.80
2022-07-27T18:08:19.963Z,53.00
2022-07-27T18:10:47.181Z,52.70
2022-07-27T18:13:16.354Z,53.20
2022-07-27T18:15:54.543Z,55.30
2022-07-27T18:18:23.948Z,53.70
2022-07-27T18:20:53.048Z,54.30
2022-07-27T18:23:23.391Z,54.70
2022-07-27T18:25:50.514Z,54.50
2022-07-27T18:28:21.140Z,54.80
2022-07-27T18:30:51.216Z,54.00
2022-07-27T18:33:18.198Z,54.10
2022-07-27T18:35:46.336Z,54.60
2022-07-27T18:38:16.742Z,54.70
2022-07-27T18:40:45.535Z,54.60
2022-07-27T18:43:12.913Z,55.30
2022-07-27T18:45:40.691Z,54.60
2022-07-27T18:48:09.774Z,54.60
2022-07-27T18:50:40.865Z,54.60
2022-07-27T18:53:08.723Z,54.90
2022-07-27T18:55:36.548Z,55.60
2022-07-27T18:58:03.541Z,55.30
2022-07-27T19:00:31.395Z,55.40
2022-07-27T19:03:03.504Z,55.60
2022-07-27T19:05:41.569Z,55.80
2022-07-27T19:08:14.076Z,55.90
2022-07-27T19:10:47.066Z,56.40
2022-07-27T19:13:14.334Z,56.80
2022-07-27T19:15:41.441Z,56.60
2022-07-27T19:18:08.777Z,56.90
2022-07-27T19:20:38.357Z,56.50
2022-07-27T19:23:08.084Z,56.60
2022-07-27T19:25:35.070Z,56.40
2022-07-27T19:28:03.702Z,56.50
2022-07-27T19:30:33.194Z,56.60
2022-07-27T19:33:00.010Z,56.80
2022-07-27T19:35:29.482Z,56.80
2022-07-27T19:37:56.287Z,57.10
2022-07-27T19:43:10.689Z,57.20
2022-07-27T19:45:40.423Z,57.50
2022-07-27T19:48:08.323Z,57.70
2022-07-27T19:50:37.401Z,57.80
2022-07-27T19:53:04.370Z,58.00
2022-07-27T19:55:33.505Z,58.10
2022-07-27T19:58:01.073Z,58.00
2022-07-27T20:00:27.859Z,58.40
2022-07-27T20:02:54.806Z,58.50
2022-07-27T20:05:26.389Z,58.60
2022-07-27T20:07:53.354Z,58.70
2022-07-27T20:10:22.465Z,59.00
2022-07-27T20:12:49.279Z,59.00
2022-07-27T20:15:18.274Z,58.90
2022-07-27T20:17:44.983Z,59.20
2022-07-27T20:20:14.703Z,59.10
2022-07-27T20:22:41.933Z,59.20
2022-07-27T20:25:10.737Z,59.40
2022-07-27T20:27:38.572Z,59.40
2022-07-27T20:30:05.794Z,59.50
2022-07-27T20:32:32.827Z,59.70
2022-07-27T20:34:59.889Z,59.60
2022-07-27T20:37:26.878Z,59.60
2022-07-27T20:39:54.077Z,59.70
2022-07-27T20:42:20.975Z,59.90
2022-07-27T20:44:47.788Z,59.90
2022-07-27T20:47:16.820Z,59.90
2022-07-27T20:49:45.685Z,59.90
2022-07-27T20:52:15.204Z,60.30
2022-07-27T20:54:42.480Z,60.50
2022-07-27T20:57:13.963Z,60.60
2022-07-27T20:59:40.717Z,60.60
2022-07-27T21:02:08.123Z,60.60
2022-07-27T21:04:37.194Z,60.80
2022-07-27T21:07:04.191Z,60.90
2022-07-27T21:09:31.620Z,61.10
2022-07-27T21:11:58.448Z,61.00
2022-07-27T21:14:25.196Z,61.20
2022-07-27T21:16:51.982Z,61.40
2022-07-27T21:19:22.397Z,61.30
2022-07-27T21:21:51.641Z,61.30
2022-07-27T21:24:20.985Z,61.40
2022-07-27T21:26:49.451Z,61.50
2022-07-27T21:29:16.776Z,61.40
2022-07-27T21:31:50.086Z,61.50
2022-07-27T21:34:19.770Z,61.60
2022-07-27T21:36:49.791Z,61.60
2022-07-27T21:39:17.957Z,61.70
2022-07-27T21:41:45.217Z,61.80
2022-07-27T21:44:12.305Z,61.60
2022-07-27T21:46:39.215Z,61.80
2022-07-27T21:49:06.117Z,61.90
2022-07-27T21:51:35.082Z,62.00
2022-07-27T21:54:01.947Z,62.00
2022-07-27T21:56:28.852Z,62.00
2022-07-27T21:58:55.790Z,62.10
2022-07-27T22:01:22.705Z,62.10
2022-07-27T22:03:49.864Z,62.10
2022-07-27T22:06:19.428Z,62.20
2022-07-27T22:08:46.347Z,62.50
2022-07-27T22:11:13.526Z,62.50
2022-07-27T22:13:40.522Z,62.40
2022-07-27T22:16:12.578Z,62.50
2022-07-27T22:18:39.605Z,62.40
2022-07-27T22:21:08.932Z,62.40
2022-07-27T22:23:35.745Z,62.50
2022-07-27T22:26:02.601Z,62.50
2022-07-27T22:28:29.508Z,62.40
2022-07-27T22:30:59.846Z,62.60
2022-07-27T22:33:44.466Z,62.50
2022-07-27T22:36:11.965Z,62.50
2022-07-27T22:38:39.150Z,62.40
2022-07-27T22:41:05.914Z,62.30
2022-07-27T22:43:32.780Z,62.20
2022-07-27T22:46:00.215Z,62.20
2022-07-27T22:48:27.261Z,62.30
2022-07-27T22:50:54.041Z,62.20
2022-07-27T22:53:20.901Z,62.30
2022-07-27T22:55:47.715Z,62.20
2022-07-27T22:58:18.225Z,62.40
2022-07-27T23:00:45.087Z,62.20
2022-07-27T23:03:11.858Z,62.30
2022-07-27T23:05:38.731Z,62.20
2022-07-27T23:08:05.845Z,62.30
2022-07-27T23:10:47.499Z,62.30
2022-07-27T23:13:23.316Z,62.20
2022-07-27T23:15:50.498Z,62.40
2022-07-27T23:18:20.726Z,62.30
2022-07-27T23:20:47.556Z,62.40
2022-07-27T23:23:21.495Z,62.30
2022-07-27T23:25:49.910Z,62.40
2022-07-27T23:28:17.418Z,62.40
2022-07-27T23:30:44.480Z,62.60
2022-07-27T23:33:11.300Z,62.80
2022-07-27T23:35:38.094Z,62.90
2022-07-27T23:38:04.924Z,62.90
2022-07-27T23:40:31.614Z,62.70
2022-07-27T23:42:58.505Z,62.60
2022-07-27T23:45:26.492Z,62.60
2022-07-27T23:47:53.210Z,62.40
2022-07-27T23:50:22.285Z,62.50
2022-07-27T23:52:49.036Z,62.50
2022-07-27T23:55:18.177Z,62.40
2022-07-27T23:57:47.202Z,62.50
